sensor_id;sensor_type;location;lat;lon;timestamp;P1;durP1;ratioP1;P2;durP2;ratioP2
23517;SDS011;11935;50.878;4.392;2022-09-09T00:01:51;2.60;;;1.23;;
23517;SDS011;11935;50.878;4.392;2022-09-09T00:09:33;6.78;;;1.77;;
23517;SDS011;11935;50.878;4.392;2022-09-09T00:12:22;6.28;;;1.48;;
23517;SDS011;11935;50.878;4.392;2022-09-09T00:14:51;5.43;;;1.30;;
23517;SDS011;11935;50.878;4.392;2022-09-09T00:22:17;8.07;;;2.22;;
23517;SDS011;11935;50.878;4.392;2022-09-09T00:24:45;2.50;;;0.98;;
23517;SDS011;11935;50.878;4.392;2022-09-09T00:27:21;6.20;;;1.30;;
23517;SDS011;11935;50.878;4.392;2022-09-09T00:30:00;3.47;;;1.27;;
23517;SDS011;11935;50.878;4.392;2022-09-09T00:32:39;5.15;;;1.50;;
23517;SDS011;11935;50.878;4.392;2022-09-09T00:35:18;5.80;;;1.30;;
23517;SDS011;11935;50.878;4.392;2022-09-09T00:37:48;3.42;;;1.27;;
23517;SDS011;11935;50.878;4.392;2022-09-09T00:40:22;5.03;;;1.05;;
23517;SDS011;11935;50.878;4.392;2022-09-09T00:42:54;4.00;;;1.30;;
23517;SDS011;11935;50.878;4.392;2022-09-09T00:45:32;3.25;;;1.30;;
23517;SDS011;11935;50.878;4.392;2022-09-09T00:48:02;5.85;;;1.42;;
23517;SDS011;11935;50.878;4.392;2022-09-09T00:55:52;2.80;;;1.00;;
23517;SDS011;11935;50.878;4.392;2022-09-09T00:58:19;6.97;;;1.40;;
23517;SDS011;11935;50.878;4.392;2022-09-09T01:00:47;5.78;;;1.38;;
23517;SDS011;11935;50.878;4.392;2022-09-09T01:08:39;3.40;;;1.40;;
23517;SDS011;11935;50.878;4.392;2022-09-09T01:11:16;3.88;;;1.50;;
23517;SDS011;11935;50.878;4.392;2022-09-09T01:13:47;5.80;;;1.73;;
23517;SDS011;11935;50.878;4.392;2022-09-09T01:16:16;7.68;;;1.42;;
23517;SDS011;11935;50.878;4.392;2022-09-09T01:18:44;4.57;;;1.20;;
23517;SDS011;11935;50.878;4.392;2022-09-09T01:26:58;3.72;;;1.10;;
23517;SDS011;11935;50.878;4.392;2022-09-09T01:29:26;7.85;;;1.27;;
23517;SDS011;11935;50.878;4.392;2022-09-09T01:31:54;5.40;;;1.83;;
23517;SDS011;11935;50.878;4.392;2022-09-09T01:34:20;4.22;;;1.48;;
23517;SDS011;11935;50.878;4.392;2022-09-09T01:36:55;5.60;;;1.15;;
23517;SDS011;11935;50.878;4.392;2022-09-09T01:39:25;7.55;;;2.05;;
23517;SDS011;11935;50.878;4.392;2022-09-09T01:41:52;9.30;;;2.80;;
23517;SDS011;11935;50.878;4.392;2022-09-09T01:44:18;5.82;;;1.77;;
23517;SDS011;11935;50.878;4.392;2022-09-09T01:46:45;7.65;;;1.45;;
23517;SDS011;11935;50.878;4.392;2022-09-09T01:49:11;5.97;;;1.77;;
23517;SDS011;11935;50.878;4.392;2022-09-09T01:51:38;4.68;;;1.48;;
23517;SDS011;11935;50.878;4.392;2022-09-09T01:54:05;6.03;;;1.40;;
23517;SDS011;11935;50.878;4.392;2022-09-09T01:56:36;7.28;;;1.38;;
23517;SDS011;11935;50.878;4.392;2022-09-09T02:04:47;11.10;;;1.95;;
23517;SDS011;11935;50.878;4.392;2022-09-09T02:09:40;8.73;;;1.90;;
23517;SDS011;11935;50.878;4.392;2022-09-09T02:12:11;6.30;;;1.65;;
23517;SDS011;11935;50.878;4.392;2022-09-09T02:14:40;8.75;;;1.90;;
23517;SDS011;11935;50.878;4.392;2022-09-09T02:17:10;11.13;;;2.00;;
23517;SDS011;11935;50.878;4.392;2022-09-09T02:19:42;6.03;;;1.80;;
23517;SDS011;11935;50.878;4.392;2022-09-09T02:22:11;9.18;;;2.22;;
23517;SDS011;11935;50.878;4.392;2022-09-09T02:24:38;5.80;;;1.40;;
23517;SDS011;11935;50.878;4.392;2022-09-09T02:27:05;8.48;;;1.92;;
23517;SDS011;11935;50.878;4.392;2022-09-09T02:32:06;7.88;;;1.90;;
23517;SDS011;11935;50.878;4.392;2022-09-09T02:34:34;8.75;;;1.73;;
23517;SDS011;11935;50.878;4.392;2022-09-09T02:37:01;5.32;;;1.50;;
23517;SDS011;11935;50.878;4.392;2022-09-09T02:39:29;7.80;;;1.77;;
23517;SDS011;11935;50.878;4.392;2022-09-09T02:41:55;6.78;;;1.45;;
23517;SDS011;11935;50.878;4.392;2022-09-09T02:44:21;10.82;;;2.17;;
23517;SDS011;11935;50.878;4.392;2022-09-09T02:49:51;4.75;;;1.50;;
23517;SDS011;11935;50.878;4.392;2022-09-09T02:52:26;9.57;;;2.10;;
23517;SDS011;11935;50.878;4.392;2022-09-09T02:54:57;6.78;;;1.75;;
23517;SDS011;11935;50.878;4.392;2022-09-09T02:57:29;8.85;;;1.63;;
23517;SDS011;11935;50.878;4.392;2022-09-09T02:59:57;7.75;;;1.67;;
23517;SDS011;11935;50.878;4.392;2022-09-09T03:02:23;7.68;;;1.85;;
23517;SDS011;11935;50.878;4.392;2022-09-09T03:04:50;10.98;;;1.80;;
23517;SDS011;11935;50.878;4.392;2022-09-09T03:07:21;8.88;;;1.65;;
23517;SDS011;11935;50.878;4.392;2022-09-09T03:09:47;11.43;;;2.13;;
23517;SDS011;11935;50.878;4.392;2022-09-09T03:12:13;12.32;;;2.13;;
23517;SDS011;11935;50.878;4.392;2022-09-09T03:14:40;11.95;;;2.03;;
23517;SDS011;11935;50.878;4.392;2022-09-09T03:17:06;11.40;;;2.08;;
23517;SDS011;11935;50.878;4.392;2022-09-09T03:19:32;8.30;;;2.10;;
23517;SDS011;11935;50.878;4.392;2022-09-09T03:22:00;13.23;;;2.47;;
23517;SDS011;11935;50.878;4.392;2022-09-09T03:24:26;12.77;;;2.30;;
23517;SDS011;11935;50.878;4.392;2022-09-09T03:26:52;12.68;;;1.85;;
23517;SDS011;11935;50.878;4.392;2022-09-09T03:29:18;7.80;;;1.85;;
23517;SDS011;11935;50.878;4.392;2022-09-09T03:31:44;9.52;;;1.85;;
23517;SDS011;11935;50.878;4.392;2022-09-09T03:34:11;8.43;;;2.25;;
23517;SDS011;11935;50.878;4.392;2022-09-09T03:36:38;12.55;;;1.80;;
23517;SDS011;11935;50.878;4.392;2022-09-09T03:39:06;9.18;;;1.85;;
23517;SDS011;11935;50.878;4.392;2022-09-09T03:41:32;11.60;;;2.10;;
23517;SDS011;11935;50.878;4.392;2022-09-09T03:43:59;11.43;;;2.58;;
23517;SDS011;11935;50.878;4.392;2022-09-09T03:46:25;8.70;;;1.70;;
23517;SDS011;11935;50.878;4.392;2022-09-09T03:48:52;12.20;;;2.38;;
23517;SDS011;11935;50.878;4.392;2022-09-09T03:51:18;12.73;;;1.63;;
23517;SDS011;11935;50.878;4.392;2022-09-09T03:53:44;9.25;;;1.85;;
23517;SDS011;11935;50.878;4.392;2022-09-09T03:56:10;7.78;;;1.80;;
23517;SDS011;11935;50.878;4.392;2022-09-09T03:58:37;9.68;;;2.10;;
23517;SDS011;11935;50.878;4.392;2022-09-09T04:01:07;12.98;;;2.15;;
23517;SDS011;11935;50.878;4.392;2022-09-09T04:03:33;25.70;;;10.35;;
23517;SDS011;11935;50.878;4.392;2022-09-09T04:06:00;14.10;;;2.05;;
23517;SDS011;11935;50.878;4.392;2022-09-09T04:08:28;17.10;;;3.42;;
23517;SDS011;11935;50.878;4.392;2022-09-09T04:10:56;11.15;;;2.35;;
23517;SDS011;11935;50.878;4.392;2022-09-09T04:13:22;14.88;;;2.00;;
23517;SDS011;11935;50.878;4.392;2022-09-09T04:15:52;10.10;;;2.00;;
23517;SDS011;11935;50.878;4.392;2022-09-09T04:18:19;8.00;;;2.00;;
23517;SDS011;11935;50.878;4.392;2022-09-09T04:20:46;9.10;;;1.88;;
23517;SDS011;11935;50.878;4.392;2022-09-09T04:23:15;12.65;;;2.10;;
23517;SDS011;11935;50.878;4.392;2022-09-09T04:28:12;8.05;;;1.83;;
23517;SDS011;11935;50.878;4.392;2022-09-09T04:30:39;11.23;;;2.33;;
23517;SDS011;11935;50.878;4.392;2022-09-09T04:33:05;11.82;;;2.33;;
23517;SDS011;11935;50.878;4.392;2022-09-09T04:35:31;13.15;;;1.90;;
23517;SDS011;11935;50.878;4.392;2022-09-09T04:37:58;9.40;;;2.38;;
23517;SDS011;11935;50.878;4.392;2022-09-09T04:40:24;8.77;;;2.08;;
23517;SDS011;11935;50.878;4.392;2022-09-09T04:42:50;8.48;;;2.13;;
23517;SDS011;11935;50.878;4.392;2022-09-09T04:45:17;14.40;;;2.92;;
23517;SDS011;11935;50.878;4.392;2022-09-09T04:47:43;11.82;;;2.95;;
23517;SDS011;11935;50.878;4.392;2022-09-09T04:50:09;11.65;;;2.80;;
23517;SDS011;11935;50.878;4.392;2022-09-09T04:52:36;13.52;;;2.60;;
23517;SDS011;11935;50.878;4.392;2022-09-09T04:55:03;15.63;;;2.72;;
23517;SDS011;11935;50.878;4.392;2022-09-09T04:57:29;13.80;;;2.17;;
23517;SDS011;11935;50.878;4.392;2022-09-09T04:59:57;9.70;;;2.40;;
23517;SDS011;11935;50.878;4.392;2022-09-09T05:02:23;8.50;;;2.38;;
23517;SDS011;11935;50.878;4.392;2022-09-09T05:04:49;12.18;;;2.28;;
23517;SDS011;11935;50.878;4.392;2022-09-09T05:07:15;14.85;;;2.60;;
23517;SDS011;11935;50.878;4.392;2022-09-09T05:09:41;16.10;;;2.30;;
23517;SDS011;11935;50.878;4.392;2022-09-09T05:12:08;10.85;;;2.85;;
23517;SDS011;11935;50.878;4.392;2022-09-09T05:14:34;13.52;;;2.92;;
23517;SDS011;11935;50.878;4.392;2022-09-09T05:17:02;11.82;;;3.10;;
23517;SDS011;11935;50.878;4.392;2022-09-09T05:19:28;11.68;;;2.70;;
23517;SDS011;11935;50.878;4.392;2022-09-09T05:21:56;14.48;;;2.58;;
23517;SDS011;11935;50.878;4.392;2022-09-09T05:24:22;6.60;;;2.20;;
23517;SDS011;11935;50.878;4.392;2022-09-09T05:26:48;13.38;;;2.85;;
23517;SDS011;11935;50.878;4.392;2022-09-09T05:29:14;11.88;;;3.00;;
23517;SDS011;11935;50.878;4.392;2022-09-09T05:31:44;10.30;;;2.30;;
23517;SDS011;11935;50.878;4.392;2022-09-09T05:34:10;10.15;;;3.03;;
23517;SDS011;11935;50.878;4.392;2022-09-09T05:36:36;10.07;;;2.30;;
23517;SDS011;11935;50.878;4.392;2022-09-09T05:39:02;13.90;;;2.85;;
23517;SDS011;11935;50.878;4.392;2022-09-09T05:41:28;9.68;;;2.33;;
23517;SDS011;11935;50.878;4.392;2022-09-09T05:43:55;12.20;;;2.10;;
23517;SDS011;11935;50.878;4.392;2022-09-09T05:46:23;13.43;;;3.20;;
23517;SDS011;11935;50.878;4.392;2022-09-09T05:48:50;12.95;;;2.78;;
23517;SDS011;11935;50.878;4.392;2022-09-09T05:51:18;12.65;;;3.53;;
23517;SDS011;11935;50.878;4.392;2022-09-09T05:53:45;12.25;;;3.92;;
23517;SDS011;11935;50.878;4.392;2022-09-09T05:56:12;12.45;;;3.25;;
23517;SDS011;11935;50.878;4.392;2022-09-09T05:58:42;15.20;;;3.17;;
23517;SDS011;11935;50.878;4.392;2022-09-09T06:01:10;13.15;;;2.78;;
23517;SDS011;11935;50.878;4.392;2022-09-09T06:03:37;10.57;;;2.22;;
23517;SDS011;11935;50.878;4.392;2022-09-09T06:06:04;13.50;;;4.07;;
23517;SDS011;11935;50.878;4.392;2022-09-09T06:08:32;12.20;;;3.10;;
23517;SDS011;11935;50.878;4.392;2022-09-09T06:11:17;12.57;;;2.78;;
23517;SDS011;11935;50.878;4.392;2022-09-09T06:13:44;13.75;;;3.05;;
23517;SDS011;11935;50.878;4.392;2022-09-09T06:16:15;12.10;;;2.95;;
23517;SDS011;11935;50.878;4.392;2022-09-09T06:18:42;10.93;;;2.42;;
23517;SDS011;11935;50.878;4.392;2022-09-09T06:21:15;11.23;;;4.15;;
23517;SDS011;11935;50.878;4.392;2022-09-09T06:23:42;15.18;;;3.60;;
23517;SDS011;11935;50.878;4.392;2022-09-09T06:28:45;12.57;;;2.58;;
23517;SDS011;11935;50.878;4.392;2022-09-09T06:31:13;13.38;;;3.47;;
23517;SDS011;11935;50.878;4.392;2022-09-09T06:33:42;9.20;;;2.03;;
23517;SDS011;11935;50.878;4.392;2022-09-09T06:36:13;9.60;;;1.88;;
23517;SDS011;11935;50.878;4.392;2022-09-09T06:38:40;12.63;;;2.47;;
23517;SDS011;11935;50.878;4.392;2022-09-09T06:41:07;9.98;;;2.20;;
23517;SDS011;11935;50.878;4.392;2022-09-09T06:43:34;11.88;;;2.42;;
23517;SDS011;11935;50.878;4.392;2022-09-09T06:48:26;12.90;;;2.00;;
23517;SDS011;11935;50.878;4.392;2022-09-09T06:51:09;8.52;;;2.08;;
23517;SDS011;11935;50.878;4.392;2022-09-09T06:53:39;7.28;;;2.03;;
23517;SDS011;11935;50.878;4.392;2022-09-09T06:58:41;9.02;;;2.42;;
23517;SDS011;11935;50.878;4.392;2022-09-09T07:01:09;11.18;;;2.30;;
23517;SDS011;11935;50.878;4.392;2022-09-09T07:03:35;14.23;;;2.80;;
23517;SDS011;11935;50.878;4.392;2022-09-09T07:06:02;11.30;;;2.38;;
23517;SDS011;11935;50.878;4.392;2022-09-09T07:08:29;9.43;;;2.13;;
23517;SDS011;11935;50.878;4.392;2022-09-09T07:11:01;9.38;;;2.20;;
23517;SDS011;11935;50.878;4.392;2022-09-09T07:13:29;9.27;;;2.25;;
23517;SDS011;11935;50.878;4.392;2022-09-09T07:16:02;11.70;;;2.00;;
23517;SDS011;11935;50.878;4.392;2022-09-09T07:18:28;11.65;;;1.50;;
23517;SDS011;11935;50.878;4.392;2022-09-09T07:20:55;9.32;;;1.75;;
23517;SDS011;11935;50.878;4.392;2022-09-09T07:23:22;13.05;;;2.80;;
23517;SDS011;11935;50.878;4.392;2022-09-09T07:25:48;9.95;;;1.58;;
23517;SDS011;11935;50.878;4.392;2022-09-09T07:28:15;8.65;;;2.38;;
23517;SDS011;11935;50.878;4.392;2022-09-09T07:30:41;8.70;;;3.15;;
23517;SDS011;11935;50.878;4.392;2022-09-09T07:33:08;7.93;;;2.08;;
23517;SDS011;11935;50.878;4.392;2022-09-09T07:35:34;11.25;;;2.38;;
23517;SDS011;11935;50.878;4.392;2022-09-09T07:38:02;7.93;;;1.65;;
23517;SDS011;11935;50.878;4.392;2022-09-09T07:40:31;7.50;;;1.98;;
23517;SDS011;11935;50.878;4.392;2022-09-09T07:42:57;10.77;;;1.88;;
23517;SDS011;11935;50.878;4.392;2022-09-09T07:45:24;9.88;;;1.90;;
23517;SDS011;11935;50.878;4.392;2022-09-09T07:47:53;9.98;;;2.17;;
23517;SDS011;11935;50.878;4.392;2022-09-09T07:50:18;9.18;;;2.20;;
23517;SDS011;11935;50.878;4.392;2022-09-09T07:52:44;9.05;;;1.98;;
23517;SDS011;11935;50.878;4.392;2022-09-09T07:55:10;9.77;;;2.13;;
23517;SDS011;11935;50.878;4.392;2022-09-09T07:57:37;7.30;;;1.63;;
23517;SDS011;11935;50.878;4.392;2022-09-09T08:00:03;9.07;;;1.85;;
23517;SDS011;11935;50.878;4.392;2022-09-09T08:02:29;9.40;;;2.35;;
23517;SDS011;11935;50.878;4.392;2022-09-09T08:04:56;7.63;;;2.10;;
23517;SDS011;11935;50.878;4.392;2022-09-09T08:07:22;7.03;;;1.70;;
23517;SDS011;11935;50.878;4.392;2022-09-09T08:09:48;8.80;;;1.88;;
23517;SDS011;11935;50.878;4.392;2022-09-09T08:12:14;12.65;;;2.47;;
23517;SDS011;11935;50.878;4.392;2022-09-09T08:14:41;7.85;;;2.00;;
23517;SDS011;11935;50.878;4.392;2022-09-09T08:17:07;13.60;;;2.50;;
23517;SDS011;11935;50.878;4.392;2022-09-09T08:19:33;10.13;;;2.17;;
23517;SDS011;11935;50.878;4.392;2022-09-09T08:22:00;8.52;;;2.20;;
23517;SDS011;11935;50.878;4.392;2022-09-09T08:24:27;9.95;;;2.10;;
23517;SDS011;11935;50.878;4.392;2022-09-09T08:26:53;7.63;;;1.65;;
23517;SDS011;11935;50.878;4.392;2022-09-09T08:29:21;9.27;;;1.98;;
23517;SDS011;11935;50.878;4.392;2022-09-09T08:31:49;11.40;;;1.98;;
23517;SDS011;11935;50.878;4.392;2022-09-09T08:34:16;11.65;;;2.28;;
23517;SDS011;11935;50.878;4.392;2022-09-09T08:36:45;10.85;;;1.48;;
23517;SDS011;11935;50.878;4.392;2022-09-09T08:39:12;7.63;;;1.63;;
23517;SDS011;11935;50.878;4.392;2022-09-09T08:51:56;8.18;;;1.95;;
23517;SDS011;11935;50.878;4.392;2022-09-09T08:54:23;8.68;;;1.80;;
23517;SDS011;11935;50.878;4.392;2022-09-09T08:56:49;7.50;;;2.17;;
23517;SDS011;11935;50.878;4.392;2022-09-09T08:59:17;11.50;;;2.05;;
23517;SDS011;11935;50.878;4.392;2022-09-09T09:01:59;12.65;;;2.53;;
23517;SDS011;11935;50.878;4.392;2022-09-09T09:07:08;9.80;;;2.10;;
23517;SDS011;11935;50.878;4.392;2022-09-09T09:12:10;9.45;;;2.20;;
23517;SDS011;11935;50.878;4.392;2022-09-09T09:14:40;11.45;;;2.00;;
23517;SDS011;11935;50.878;4.392;2022-09-09T09:17:12;11.70;;;2.42;;
23517;SDS011;11935;50.878;4.392;2022-09-09T09:19:41;7.32;;;1.70;;
23517;SDS011;11935;50.878;4.392;2022-09-09T09:24:58;8.40;;;2.00;;
23517;SDS011;11935;50.878;4.392;2022-09-09T09:29:54;8.85;;;2.30;;
23517;SDS011;11935;50.878;4.392;2022-09-09T09:32:22;11.65;;;2.30;;
23517;SDS011;11935;50.878;4.392;2022-09-09T09:34:56;10.40;;;2.45;;
23517;SDS011;11935;50.878;4.392;2022-09-09T09:37:30;11.68;;;2.38;;
23517;SDS011;11935;50.878;4.392;2022-09-09T09:40:19;9.70;;;2.60;;
23517;SDS011;11935;50.878;4.392;2022-09-09T09:42:52;7.70;;;2.60;;
23517;SDS011;11935;50.878;4.392;2022-09-09T09:48:06;10.55;;;3.25;;
23517;SDS011;11935;50.878;4.392;2022-09-09T09:50:34;9.30;;;2.42;;
23517;SDS011;11935;50.878;4.392;2022-09-09T09:53:02;7.35;;;2.60;;
23517;SDS011;11935;50.878;4.392;2022-09-09T09:55:30;12.82;;;2.65;;
23517;SDS011;11935;50.878;4.392;2022-09-09T09:58:04;10.00;;;2.50;;
23517;SDS011;11935;50.878;4.392;2022-09-09T10:00:30;8.85;;;2.35;;
23517;SDS011;11935;50.878;4.392;2022-09-09T10:02:57;9.27;;;2.38;;
23517;SDS011;11935;50.878;4.392;2022-09-09T10:05:26;9.68;;;2.15;;
23517;SDS011;11935;50.878;4.392;2022-09-09T10:08:05;5.93;;;1.90;;
23517;SDS011;11935;50.878;4.392;2022-09-09T10:13:26;7.28;;;2.25;;
23517;SDS011;11935;50.878;4.392;2022-09-09T10:15:58;9.90;;;2.17;;
23517;SDS011;11935;50.878;4.392;2022-09-09T10:18:55;7.80;;;2.25;;
23517;SDS011;11935;50.878;4.392;2022-09-09T10:29:30;6.70;;;2.03;;
23517;SDS011;11935;50.878;4.392;2022-09-09T10:32:13;7.75;;;2.13;;
23517;SDS011;11935;50.878;4.392;2022-09-09T10:34:57;5.13;;;2.20;;
23517;SDS011;11935;50.878;4.392;2022-09-09T10:40:14;8.63;;;2.83;;
23517;SDS011;11935;50.878;4.392;2022-09-09T10:42:44;9.23;;;3.20;;
23517;SDS011;11935;50.878;4.392;2022-09-09T10:45:23;8.85;;;2.58;;
23517;SDS011;11935;50.878;4.392;2022-09-09T10:48:20;6.93;;;1.90;;
23517;SDS011;11935;50.878;4.392;2022-09-09T10:51:12;7.90;;;2.65;;
23517;SDS011;11935;50.878;4.392;2022-09-09T10:53:50;6.10;;;2.28;;
23517;SDS011;11935;50.878;4.392;2022-09-09T10:56:34;6.53;;;2.33;;
23517;SDS011;11935;50.878;4.392;2022-09-09T10:59:02;8.68;;;2.20;;
23517;SDS011;11935;50.878;4.392;2022-09-09T11:01:48;9.57;;;2.25;;
23517;SDS011;11935;50.878;4.392;2022-09-09T11:04:22;8.10;;;1.80;;
23517;SDS011;11935;50.878;4.392;2022-09-09T11:06:49;4.93;;;1.80;;
23517;SDS011;11935;50.878;4.392;2022-09-09T11:09:18;7.28;;;1.80;;
23517;SDS011;11935;50.878;4.392;2022-09-09T11:11:50;8.68;;;1.90;;
23517;SDS011;11935;50.878;4.392;2022-09-09T11:16:51;9.82;;;1.95;;
23517;SDS011;11935;50.878;4.392;2022-09-09T11:21:53;8.00;;;1.75;;
23517;SDS011;11935;50.878;4.392;2022-09-09T11:42:15;5.93;;;1.83;;
23517;SDS011;11935;50.878;4.392;2022-09-09T11:44:42;8.45;;;2.00;;
23517;SDS011;11935;50.878;4.392;2022-09-09T11:47:16;6.22;;;1.40;;
23517;SDS011;11935;50.878;4.392;2022-09-09T11:49:44;7.45;;;2.47;;
23517;SDS011;11935;50.878;4.392;2022-09-09T11:52:11;8.25;;;1.63;;
23517;SDS011;11935;50.878;4.392;2022-09-09T11:54:46;6.35;;;1.88;;
23517;SDS011;11935;50.878;4.392;2022-09-09T11:57:35;7.78;;;1.83;;
23517;SDS011;11935;50.878;4.392;2022-09-09T12:00:02;7.82;;;2.15;;
23517;SDS011;11935;50.878;4.392;2022-09-09T12:02:28;6.05;;;1.90;;
23517;SDS011;11935;50.878;4.392;2022-09-09T12:05:07;7.05;;;2.00;;
23517;SDS011;11935;50.878;4.392;2022-09-09T12:07:55;5.75;;;1.98;;
23517;SDS011;11935;50.878;4.392;2022-09-09T12:10:27;6.07;;;1.40;;
23517;SDS011;11935;50.878;4.392;2022-09-09T12:12:54;8.18;;;2.03;;
23517;SDS011;11935;50.878;4.392;2022-09-09T12:15:25;7.60;;;1.92;;
23517;SDS011;11935;50.878;4.392;2022-09-09T12:17:54;7.78;;;2.85;;
23517;SDS011;11935;50.878;4.392;2022-09-09T12:20:21;10.05;;;2.25;;
23517;SDS011;11935;50.878;4.392;2022-09-09T12:25:29;6.90;;;2.00;;
23517;SDS011;11935;50.878;4.392;2022-09-09T12:28:09;5.90;;;1.90;;
23517;SDS011;11935;50.878;4.392;2022-09-09T12:30:40;5.88;;;1.90;;
23517;SDS011;11935;50.878;4.392;2022-09-09T12:33:13;6.35;;;1.70;;
23517;SDS011;11935;50.878;4.392;2022-09-09T12:35:43;5.72;;;1.38;;
23517;SDS011;11935;50.878;4.392;2022-09-09T12:38:15;7.32;;;1.30;;
23517;SDS011;11935;50.878;4.392;2022-09-09T12:40:53;3.67;;;1.60;;
23517;SDS011;11935;50.878;4.392;2022-09-09T12:43:20;6.05;;;1.52;;
23517;SDS011;11935;50.878;4.392;2022-09-09T12:45:46;11.70;;;1.80;;
23517;SDS011;11935;50.878;4.392;2022-09-09T12:50:48;6.60;;;1.55;;
23517;SDS011;11935;50.878;4.392;2022-09-09T12:53:20;7.40;;;1.13;;
23517;SDS011;11935;50.878;4.392;2022-09-09T12:55:53;4.50;;;1.25;;
23517;SDS011;11935;50.878;4.392;2022-09-09T12:58:20;5.78;;;1.30;;
23517;SDS011;11935;50.878;4.392;2022-09-09T13:00:50;5.05;;;1.88;;
23517;SDS011;11935;50.878;4.392;2022-09-09T13:03:23;4.45;;;1.25;;
23517;SDS011;11935;50.878;4.392;2022-09-09T13:05:50;4.93;;;1.30;;
23517;SDS011;11935;50.878;4.392;2022-09-09T13:08:16;5.45;;;1.60;;
23517;SDS011;11935;50.878;4.392;2022-09-09T13:10:50;5.88;;;1.40;;
23517;SDS011;11935;50.878;4.392;2022-09-09T13:13:20;4.45;;;1.38;;
23517;SDS011;11935;50.878;4.392;2022-09-09T13:15:52;5.20;;;1.70;;
23517;SDS011;11935;50.878;4.392;2022-09-09T13:18:21;4.65;;;1.38;;
23517;SDS011;11935;50.878;4.392;2022-09-09T13:20:48;6.07;;;1.27;;
23517;SDS011;11935;50.878;4.392;2022-09-09T13:23:15;5.57;;;1.30;;
23517;SDS011;11935;50.878;4.392;2022-09-09T13:25:42;3.17;;;1.05;;
23517;SDS011;11935;50.878;4.392;2022-09-09T13:28:20;6.97;;;1.25;;
23517;SDS011;11935;50.878;4.392;2022-09-09T13:30:54;5.50;;;1.33;;
23517;SDS011;11935;50.878;4.392;2022-09-09T13:33:24;3.40;;;1.45;;
23517;SDS011;11935;50.878;4.392;2022-09-09T13:35:59;5.15;;;1.40;;
23517;SDS011;11935;50.878;4.392;2022-09-09T13:38:28;6.25;;;1.30;;
23517;SDS011;11935;50.878;4.392;2022-09-09T13:40:57;5.32;;;1.70;;
23517;SDS011;11935;50.878;4.392;2022-09-09T13:43:34;2.95;;;1.20;;
23517;SDS011;11935;50.878;4.392;2022-09-09T13:46:03;5.95;;;1.25;;
23517;SDS011;11935;50.878;4.392;2022-09-09T13:48:30;4.57;;;1.42;;
23517;SDS011;11935;50.878;4.392;2022-09-09T13:50:57;3.50;;;1.35;;
23517;SDS011;11935;50.878;4.392;2022-09-09T13:53:24;8.15;;;1.60;;
23517;SDS011;11935;50.878;4.392;2022-09-09T13:55:50;7.55;;;2.10;;
23517;SDS011;11935;50.878;4.392;2022-09-09T13:58:17;3.40;;;1.45;;
23517;SDS011;11935;50.878;4.392;2022-09-09T14:00:44;7.10;;;1.98;;
23517;SDS011;11935;50.878;4.392;2022-09-09T14:03:10;4.63;;;1.17;;
23517;SDS011;11935;50.878;4.392;2022-09-09T14:05:36;4.18;;;1.20;;
23517;SDS011;11935;50.878;4.392;2022-09-09T14:08:03;3.72;;;1.20;;
23517;SDS011;11935;50.878;4.392;2022-09-09T14:10:31;5.00;;;1.20;;
23517;SDS011;11935;50.878;4.392;2022-09-09T14:12:57;7.53;;;1.60;;
23517;SDS011;11935;50.878;4.392;2022-09-09T14:15:23;3.95;;;1.20;;
23517;SDS011;11935;50.878;4.392;2022-09-09T14:17:49;4.25;;;1.20;;
23517;SDS011;11935;50.878;4.392;2022-09-09T14:20:17;5.75;;;1.65;;
23517;SDS011;11935;50.878;4.392;2022-09-09T14:22:44;6.28;;;1.50;;
23517;SDS011;11935;50.878;4.392;2022-09-09T14:25:10;6.35;;;1.52;;
23517;SDS011;11935;50.878;4.392;2022-09-09T14:27:38;4.50;;;1.80;;
23517;SDS011;11935;50.878;4.392;2022-09-09T14:30:05;4.15;;;1.10;;
23517;SDS011;11935;50.878;4.392;2022-09-09T14:32:32;6.78;;;1.67;;
23517;SDS011;11935;50.878;4.392;2022-09-09T14:34:58;6.18;;;1.30;;
23517;SDS011;11935;50.878;4.392;2022-09-09T14:37:24;5.60;;;1.50;;
23517;SDS011;11935;50.878;4.392;2022-09-09T14:39:51;6.80;;;1.40;;
23517;SDS011;11935;50.878;4.392;2022-09-09T14:42:17;6.55;;;1.30;;
23517;SDS011;11935;50.878;4.392;2022-09-09T14:44:43;4.65;;;1.05;;
23517;SDS011;11935;50.878;4.392;2022-09-09T14:47:10;6.38;;;1.27;;
23517;SDS011;11935;50.878;4.392;2022-09-09T14:49:36;9.00;;;1.60;;
23517;SDS011;11935;50.878;4.392;2022-09-09T14:52:02;3.90;;;1.48;;
23517;SDS011;11935;50.878;4.392;2022-09-09T14:54:28;5.28;;;1.50;;
23517;SDS011;11935;50.878;4.392;2022-09-09T14:56:54;4.20;;;1.13;;
23517;SDS011;11935;50.878;4.392;2022-09-09T14:59:21;5.20;;;1.27;;
23517;SDS011;11935;50.878;4.392;2022-09-09T15:01:47;3.95;;;1.10;;
23517;SDS011;11935;50.878;4.392;2022-09-09T15:04:14;5.53;;;1.58;;
23517;SDS011;11935;50.878;4.392;2022-09-09T15:06:44;5.10;;;1.20;;
23517;SDS011;11935;50.878;4.392;2022-09-09T15:09:13;5.40;;;1.60;;
23517;SDS011;11935;50.878;4.392;2022-09-09T15:11:39;4.38;;;1.38;;
23517;SDS011;11935;50.878;4.392;2022-09-09T15:14:06;3.47;;;1.20;;
23517;SDS011;11935;50.878;4.392;2022-09-09T15:16:32;5.97;;;1.45;;
23517;SDS011;11935;50.878;4.392;2022-09-09T15:18:59;5.97;;;1.73;;
23517;SDS011;11935;50.878;4.392;2022-09-09T15:21:27;7.40;;;2.05;;
23517;SDS011;11935;50.878;4.392;2022-09-09T15:23:53;4.72;;;1.50;;
23517;SDS011;11935;50.878;4.392;2022-09-09T15:26:19;3.92;;;1.60;;
23517;SDS011;11935;50.878;4.392;2022-09-09T15:28:46;6.47;;;1.20;;
23517;SDS011;11935;50.878;4.392;2022-09-09T15:31:17;5.82;;;1.95;;
23517;SDS011;11935;50.878;4.392;2022-09-09T15:33:50;6.50;;;1.48;;
23517;SDS011;11935;50.878;4.392;2022-09-09T15:36:17;7.18;;;1.83;;
23517;SDS011;11935;50.878;4.392;2022-09-09T15:38:44;5.05;;;1.33;;
23517;SDS011;11935;50.878;4.392;2022-09-09T15:41:11;3.55;;;1.40;;
23517;SDS011;11935;50.878;4.392;2022-09-09T15:43:37;4.38;;;1.10;;
23517;SDS011;11935;50.878;4.392;2022-09-09T15:46:08;3.53;;;1.30;;
23517;SDS011;11935;50.878;4.392;2022-09-09T15:48:49;7.38;;;1.70;;
23517;SDS011;11935;50.878;4.392;2022-09-09T15:51:15;7.50;;;1.23;;
23517;SDS011;11935;50.878;4.392;2022-09-09T15:53:42;3.97;;;1.23;;
23517;SDS011;11935;50.878;4.392;2022-09-09T15:56:08;4.25;;;1.50;;
23517;SDS011;11935;50.878;4.392;2022-09-09T15:58:35;6.20;;;1.35;;
23517;SDS011;11935;50.878;4.392;2022-09-09T16:01:04;5.20;;;1.50;;
23517;SDS011;11935;50.878;4.392;2022-09-09T16:03:41;5.88;;;1.95;;
23517;SDS011;11935;50.878;4.392;2022-09-09T16:06:07;4.50;;;1.40;;
23517;SDS011;11935;50.878;4.392;2022-09-09T16:08:52;5.05;;;1.50;;
23517;SDS011;11935;50.878;4.392;2022-09-09T16:11:23;3.53;;;1.75;;
23517;SDS011;11935;50.878;4.392;2022-09-09T16:13:49;4.85;;;1.60;;
23517;SDS011;11935;50.878;4.392;2022-09-09T16:16:17;6.18;;;1.60;;
23517;SDS011;11935;50.878;4.392;2022-09-09T16:18:51;5.18;;;1.90;;
23517;SDS011;11935;50.878;4.392;2022-09-09T16:21:22;5.10;;;1.58;;
23517;SDS011;11935;50.878;4.392;2022-09-09T16:23:54;4.15;;;1.40;;
23517;SDS011;11935;50.878;4.392;2022-09-09T16:26:21;4.05;;;1.80;;
23517;SDS011;11935;50.878;4.392;2022-09-09T16:28:47;4.00;;;1.30;;
23517;SDS011;11935;50.878;4.392;2022-09-09T16:31:20;4.43;;;1.38;;
23517;SDS011;11935;50.878;4.392;2022-09-09T16:33:48;3.97;;;2.10;;
23517;SDS011;11935;50.878;4.392;2022-09-09T16:36:17;6.45;;;1.77;;
23517;SDS011;11935;50.878;4.392;2022-09-09T16:38:43;8.98;;;1.77;;
23517;SDS011;11935;50.878;4.392;2022-09-09T16:41:10;5.00;;;1.40;;
23517;SDS011;11935;50.878;4.392;2022-09-09T16:43:37;4.40;;;1.60;;
23517;SDS011;11935;50.878;4.392;2022-09-09T16:46:14;3.00;;;1.30;;
23517;SDS011;11935;50.878;4.392;2022-09-09T16:48:41;5.97;;;1.40;;
23517;SDS011;11935;50.878;4.392;2022-09-09T16:51:11;4.35;;;2.13;;